createdAt,value
2018-09-23T00:04:58.599Z,16.7
2018-09-23T00:15:15.014Z,16.6
2018-09-23T00:20:23.302Z,16.7
2018-09-23T00:25:32.923Z,16.6
2018-09-23T00:30:43.860Z,16.7
2018-09-23T00:35:48.151Z,16.6
2018-09-23T00:40:56.357Z,16.6
2018-09-23T00:51:12.894Z,16.6
2018-09-23T00:56:21.202Z,16.6
2018-09-23T01:01:29.359Z,16.6
2018-09-23T01:06:37.723Z,16.6
2018-09-23T01:16:54.130Z,16.6
2018-09-23T01:22:02.330Z,16.6
2018-09-23T01:27:10.535Z,16.7
2018-09-23T01:32:18.754Z,16.7
2018-09-23T01:37:26.987Z,16.8
2018-09-23T01:42:35.238Z,16.7
2018-09-23T01:47:43.508Z,16.7
2018-09-23T01:52:51.736Z,16.6
2018-09-23T01:58:00.129Z,16.7
2018-09-23T02:03:08.556Z,16.7
2018-09-23T02:08:16.514Z,16.7
2018-09-23T02:13:24.711Z,16.7
2018-09-23T02:18:33.004Z,16.6
2018-09-23T02:23:41.716Z,16.7
2018-09-23T02:33:57.703Z,16.7
2018-09-23T02:39:06.104Z,16.7
2018-09-23T02:44:14.261Z,16.7
2018-09-23T02:49:22.595Z,16.6
2018-09-23T02:54:30.820Z,16.6
2018-09-23T02:59:39.070Z,16.7
2018-09-23T03:04:47.367Z,16.6
2018-09-23T03:09:55.564Z,16.7
2018-09-23T03:15:03.827Z,16.7
2018-09-23T03:20:12.266Z,16.6
2018-09-23T03:25:20.383Z,16.7
2018-09-23T03:30:28.631Z,16.7
2018-09-23T03:35:36.949Z,16.6
2018-09-23T03:40:45.188Z,16.6
2018-09-23T03:45:53.477Z,16.6
2018-09-23T03:51:01.787Z,16.7
2018-09-23T03:56:09.993Z,16.6
2018-09-23T04:01:18.267Z,16.6
2018-09-23T04:06:26.512Z,16.5
2018-09-23T04:16:42.987Z,16.5
2018-09-23T04:21:51.492Z,16.5
2018-09-23T04:26:59.571Z,16.7
2018-09-23T04:32:07.728Z,16.7
2018-09-23T04:37:15.943Z,16.7
2018-09-23T04:42:24.172Z,16.6
2018-09-23T04:47:32.712Z,16.6
2018-09-23T04:52:40.678Z,16.6
2018-09-23T04:57:49.074Z,16.6
2018-09-23T05:02:57.183Z,16.7
2018-09-23T05:08:05.470Z,16.6
2018-09-23T05:13:15.192Z,16.6
2018-09-23T05:23:30.315Z,16.6
2018-09-23T05:28:38.487Z,16.6
2018-09-23T05:33:46.689Z,16.7
2018-09-23T05:38:55.016Z,16.8
2018-09-23T05:44:03.186Z,16.8
2018-09-23T05:59:27.934Z,16.9
2018-09-23T06:04:36.187Z,17.1
2018-09-23T06:09:44.431Z,17.1
2018-09-23T06:14:52.712Z,17.2
2018-09-23T06:20:00.956Z,17.3
2018-09-23T06:25:09.420Z,17.2
2018-09-23T06:30:17.898Z,17.4
2018-09-23T06:35:25.607Z,17.5
2018-09-23T06:40:33.793Z,17.6
2018-09-23T06:45:42.423Z,17.7
2018-09-23T06:50:50.223Z,17.7
2018-09-23T06:55:58.392Z,17.9
2018-09-23T07:01:06.849Z,17.9
2018-09-23T07:11:22.981Z,18.1
2018-09-23T07:16:31.163Z,18.1
2018-09-23T07:21:39.307Z,18.1
2018-09-23T07:26:47.428Z,18.3
2018-09-23T07:31:55.589Z,18.4
2018-09-23T07:42:11.899Z,18.4
2018-09-23T07:47:20.110Z,18.6
2018-09-23T07:52:28.166Z,18.6
2018-09-23T07:57:36.331Z,18.7
2018-09-23T08:07:52.687Z,18.9
2018-09-23T08:13:00.668Z,18.9
2018-09-23T08:18:08.849Z,19
2018-09-23T08:28:25.094Z,19.2
2018-09-23T08:33:33.081Z,19.3
2018-09-23T08:38:41.501Z,19.3
2018-09-23T08:43:49.264Z,19.4
2018-09-23T08:48:57.327Z,19.4
2018-09-23T08:54:05.366Z,19.6
2018-09-23T08:59:13.420Z,19.7
2018-09-23T09:04:21.458Z,19.7
2018-09-23T09:09:29.513Z,19.7
2018-09-23T09:14:37.605Z,19.5
2018-09-23T09:24:53.713Z,19.4
2018-09-23T09:30:01.788Z,19.4
2018-09-23T09:35:09.912Z,19.3
2018-09-23T09:40:17.909Z,19.4
2018-09-23T09:50:34.016Z,19.2
2018-09-23T09:55:42.210Z,19.2
2018-09-23T10:00:50.169Z,19.1
2018-09-23T10:05:58.256Z,18.9
2018-09-23T10:11:06.461Z,18.9
2018-09-23T10:16:14.475Z,18.8
2018-09-23T10:21:22.488Z,18.8
2018-09-23T10:26:30.595Z,18.8
2018-09-23T10:31:38.728Z,18.6
2018-09-23T10:36:46.802Z,18.5
2018-09-23T10:41:54.874Z,18.5
2018-09-23T10:57:19.381Z,18.3
2018-09-23T11:07:35.939Z,18.1
2018-09-23T11:12:43.561Z,18.1
2018-09-23T11:17:51.736Z,18
2018-09-23T11:22:59.824Z,18
2018-09-23T11:33:16.255Z,17.9
2018-09-23T11:38:24.244Z,18
2018-09-23T11:43:32.373Z,18
2018-09-23T11:48:40.479Z,18
2018-09-23T11:53:48.645Z,18
2018-09-23T11:58:56.805Z,17.9
2018-09-23T12:04:04.890Z,17.9
2018-09-23T12:09:12.983Z,17.9
2018-09-23T12:14:21.197Z,18
2018-09-23T12:19:29.224Z,17.9
2018-09-23T12:34:53.620Z,17.8
2018-09-23T12:40:01.751Z,17.8
2018-09-23T12:55:26.231Z,17.6
2018-09-23T13:00:34.391Z,17.6
2018-09-23T13:05:42.643Z,17.5
2018-09-23T13:10:50.761Z,17.5
2018-09-23T13:15:59.014Z,17.5
2018-09-23T13:21:07.151Z,17.5
2018-09-23T13:26:15.346Z,17.4
2018-09-23T13:31:23.521Z,17.4
2018-09-23T13:36:31.718Z,17.4
2018-09-23T13:41:39.909Z,17.4
2018-09-23T13:46:48.058Z,17.4
2018-09-23T13:57:04.379Z,17.4
2018-09-23T14:02:12.634Z,17.4
2018-09-23T14:07:20.860Z,17.4
2018-09-23T14:12:29.042Z,17.4
2018-09-23T14:17:37.078Z,17.3
2018-09-23T14:22:45.234Z,17.3
2018-09-23T14:33:01.673Z,17.3
2018-09-23T14:38:09.751Z,17.2
2018-09-23T14:43:17.982Z,17.2
2018-09-23T14:48:26.096Z,17.1
2018-09-23T14:53:34.313Z,17.2
2018-09-23T14:58:42.461Z,17.2
2018-09-23T15:03:50.614Z,17.1
2018-09-23T15:08:58.806Z,17.1
2018-09-23T15:14:06.988Z,17
2018-09-23T15:19:15.129Z,17
2018-09-23T15:24:23.320Z,17
2018-09-23T15:29:31.627Z,16.9
2018-09-23T15:34:39.677Z,17
2018-09-23T15:39:47.842Z,17
2018-09-23T15:44:56.026Z,17
2018-09-23T15:50:04.259Z,17.1
2018-09-23T15:55:12.404Z,17.1
2018-09-23T16:00:20.537Z,16.9
2018-09-23T16:05:28.791Z,16.8
2018-09-23T16:15:45.152Z,16.7
2018-09-23T16:20:53.364Z,16.7
2018-09-23T16:26:01.700Z,16.7
2018-09-23T16:31:09.895Z,16.6
2018-09-23T16:36:18.101Z,16.7
2018-09-23T16:41:26.326Z,16.7
2018-09-23T16:46:34.500Z,16.7
2018-09-23T16:51:42.733Z,16.7
2018-09-23T16:56:51.256Z,16.6
2018-09-23T17:01:59.211Z,16.5
2018-09-23T17:07:07.397Z,16.6
2018-09-23T17:12:15.624Z,16.6
2018-09-23T17:17:23.815Z,16.6
2018-09-23T17:27:40.265Z,16.5
2018-09-23T17:32:48.473Z,16.4
2018-09-23T17:37:56.698Z,16.5
2018-09-23T17:43:04.948Z,16.4
2018-09-23T17:48:13.204Z,16.4
2018-09-23T18:03:38.199Z,16
2018-09-23T18:08:46.202Z,16
2018-09-23T18:13:54.429Z,15.9
2018-09-23T18:19:02.805Z,15.8
2018-09-23T18:24:11.003Z,15.7
2018-09-23T18:29:19.283Z,15.5
2018-09-23T18:34:27.576Z,15.4
2018-09-23T18:39:35.875Z,15.4
2018-09-23T18:44:44.440Z,15.3
2018-09-23T18:49:52.458Z,15.2
2018-09-23T18:55:00.784Z,15.3
2018-09-23T19:00:09.116Z,15.2
2018-09-23T19:05:17.416Z,15.1
2018-09-23T19:10:26.075Z,15.1
2018-09-23T19:15:34.091Z,15
2018-09-23T19:25:50.827Z,14.9
2018-09-23T19:30:59.038Z,14.9
2018-09-23T19:41:15.704Z,14.7
2018-09-23T19:46:24.058Z,14.7
2018-09-23T19:51:32.345Z,14.7
2018-09-23T19:56:40.734Z,14.7
2018-09-23T20:01:49.016Z,14.7
2018-09-23T20:06:57.400Z,14.6
2018-09-23T20:12:05.724Z,14.7
2018-09-23T20:17:14.042Z,14.6
2018-09-23T20:22:22.393Z,14.6
2018-09-23T20:27:31.421Z,14.6
2018-09-23T20:32:39.187Z,14.5
2018-09-23T20:37:47.407Z,14.5
2018-09-23T20:42:56.002Z,14.5
2018-09-23T20:48:04.112Z,14.6
2018-09-23T20:53:12.479Z,14.5
2018-09-23T20:58:20.827Z,14.5
2018-09-23T21:03:29.212Z,14.5
2018-09-23T21:08:37.691Z,14.5
2018-09-23T21:13:48.556Z,14.5
2018-09-23T21:24:02.664Z,14.4
2018-09-23T21:29:11.038Z,14.3
2018-09-23T21:34:19.414Z,14.3
2018-09-23T21:39:27.816Z,14.3
2018-09-23T21:44:36.228Z,14.3
2018-09-23T21:49:44.556Z,14.1
2018-09-23T21:54:52.956Z,14.1
2018-09-23T22:00:01.378Z,14.1
2018-09-23T22:05:09.747Z,14
2018-09-23T22:10:18.119Z,14
2018-09-23T22:15:26.540Z,13.9
2018-09-23T22:20:35.016Z,13.9
2018-09-23T22:25:43.376Z,13.8
2018-09-23T22:30:51.843Z,13.7
2018-09-23T22:36:00.114Z,13.8
2018-09-23T22:41:08.657Z,13.7
2018-09-23T22:46:17.053Z,13.7
2018-09-23T22:51:25.419Z,13.7
2018-09-23T22:56:33.962Z,13.5
2018-09-23T23:17:07.595Z,13.5
2018-09-23T23:22:17.528Z,13.5
2018-09-23T23:32:32.952Z,13.4
2018-09-23T23:37:41.321Z,13.4
2018-09-23T23:42:49.819Z,13.4
2018-09-23T23:47:58.245Z,13.3
2018-09-23T23:58:15.147Z,13.2
